North Marshfield, Massachusetts
Current Conditions -  °F | °C
As of 11:30 AM on Wednesday 22 Oct 2014 (Local Time) from KGHG Reporting Station
Light Rain Light Rain  
Wind Chill: 55°   Ceiling: 300
Heat Index: 55°   Visibility: 0.75mi
Dew Point: 55°   Wind: 12mph
Humidity: 100%   Direction: 30°NNE
Pressure: 29.96"   Gusts: 21mph
Location:  42.14°N, 70.77°W
Report Text: KGHG 221530Z AUTO 03010G18KT 020V360 3/4SM -RA OVC003 13/13 A2996 RMK AO2
Loading
Personal Weather Stations






























Interactive Weather Map
Tropical Storm Tracking
New forecast layout! Learn more

10-Day Weather Forecast

Advertisements
Track Severe Weather on mobile